Time;durP1;ratioP1;P1;durP2;ratioP2;P2;SDS_P1;SDS_P2;PMS_P1;PMS_P2;Temp;Humidity;BMP_temperature;BMP_pressure;BME280_temperature;BME280_humidity;BME280_pressure;Samples;Min_cycle;Max_cycle;Signal;HPM_P1;HPM_P2
2022/04/07 00:01:53;;;;;;;9.38;6.80;;;9.30;88.00;;;;;;5156165;27;20026;-45
2022/04/07 00:04:21;;;;;;;9.25;6.72;;;9.30;88.00;;;;;;5156189;27;20030;-46
2022/04/07 00:06:49;;;;;;;10.02;6.82;;;9.30;88.10;;;;;;5174640;27;20034;-46
2022/04/07 00:09:15;;;;;;;9.93;6.53;;;9.30;88.00;;;;;;5174698;27;20447;-45
2022/04/07 00:11:43;;;;;;;9.93;6.97;;;9.30;88.20;;;;;;5174775;27;20049;-45
2022/04/07 00:14:11;;;;;;;9.45;7.25;;;9.20;88.40;;;;;;5155634;27;20042;-45
2022/04/07 00:16:36;;;;;;;9.60;7.30;;;9.20;88.50;;;;;;5155628;27;20460;-45
2022/04/07 00:19:02;;;;;;;10.80;9.07;;;9.20;88.60;;;;;;5174525;27;20022;-46
2022/04/07 00:21:35;;;;;;;9.48;7.50;;;9.20;88.60;;;;;;5147980;27;20326;-44
2022/04/07 00:24:05;;;;;;;8.40;7.50;;;9.20;88.70;;;;;;5174442;27;20026;-45
2022/04/07 00:26:31;;;;;;;11.48;7.63;;;9.10;88.80;;;;;;5173484;27;20030;-45
2022/04/07 00:28:57;;;;;;;12.30;8.52;;;9.20;88.90;;;;;;5177875;27;20064;-44
2022/04/07 00:31:23;;;;;;;10.30;7.93;;;9.20;88.80;;;;;;5176880;27;20034;-45
2022/04/07 00:33:49;;;;;;;10.07;8.05;;;9.20;88.70;;;;;;5178391;27;20035;-46
2022/04/07 00:36:17;;;;;;;11.15;7.13;;;9.20;88.80;;;;;;5177944;27;20101;-44
2022/04/07 00:38:42;;;;;;;10.10;7.45;;;9.10;88.80;;;;;;5158868;27;20105;-45
2022/04/07 00:41:08;;;;;;;11.35;7.35;;;9.10;88.80;;;;;;5178069;27;20516;-45
2022/04/07 00:43:36;;;;;;;9.95;7.63;;;9.20;88.70;;;;;;5176850;27;20056;-46
2022/04/07 00:46:04;;;;;;;10.23;6.68;;;9.20;88.70;;;;;;5177274;27;20127;-45
2022/04/07 00:48:35;;;;;;;9.95;7.60;;;9.20;88.60;;;;;;5177046;27;20094;-47
2022/04/07 00:51:01;;;;;;;10.82;7.20;;;9.20;88.40;;;;;;5177637;27;20112;-45
2022/04/07 00:53:27;;;;;;;12.05;6.97;;;9.20;88.40;;;;;;5158317;27;20356;-45
2022/04/07 00:55:53;;;;;;;10.05;7.30;;;9.20;88.30;;;;;;5157662;27;20585;-49
2022/04/07 00:58:19;;;;;;;9.25;7.57;;;9.20;88.30;;;;;;5172404;27;20040;-45
2022/04/07 01:00:45;;;;;;;10.32;7.80;;;9.10;88.40;;;;;;5158257;27;20018;-46
2022/04/07 01:03:11;;;;;;;9.82;7.05;;;9.10;88.30;;;;;;5177121;27;20030;-48
2022/04/07 01:05:42;;;;;;;12.82;8.30;;;9.20;88.30;;;;;;5176977;27;20018;-47
2022/04/07 01:08:09;;;;;;;11.90;7.53;;;9.20;88.10;;;;;;5176826;27;20057;-44
2022/04/07 01:10:35;;;;;;;9.32;6.55;;;9.20;88.00;;;;;;5177048;27;20018;-44
2022/04/07 01:13:00;;;;;;;15.07;7.25;;;9.20;87.90;;;;;;5173344;27;20096;-45
2022/04/07 01:15:26;;;;;;;8.35;7.40;;;9.20;87.80;;;;;;5160386;27;20030;-45
2022/04/07 01:17:51;;;;;;;10.52;7.63;;;9.20;87.80;;;;;;5137636;27;20323;-46
2022/04/07 01:20:17;;;;;;;14.73;8.43;;;9.20;87.90;;;;;;5166396;27;20031;-48
2022/04/07 01:22:46;;;;;;;9.98;7.63;;;9.20;87.80;;;;;;5155269;27;20023;-46
2022/04/07 01:25:13;;;;;;;8.93;7.35;;;9.20;87.90;;;;;;5155726;27;20387;-48
2022/04/07 01:27:41;;;;;;;11.00;8.18;;;9.20;87.90;;;;;;5138405;27;20059;-48
2022/04/07 01:30:08;;;;;;;9.55;7.65;;;9.20;88.00;;;;;;5155817;27;20058;-46
2022/04/07 01:32:44;;;;;;;13.57;8.18;;;9.20;88.00;;;;;;5138143;27;20045;-47
2022/04/07 01:35:10;;;;;;;11.52;7.40;;;9.20;88.00;;;;;;5155897;27;20101;-49
2022/04/07 01:37:38;;;;;;;9.27;6.68;;;9.20;88.00;;;;;;5156015;27;20023;-48
2022/04/07 01:40:07;;;;;;;10.00;6.13;;;9.20;87.90;;;;;;5154081;27;20088;-47
2022/04/07 01:42:34;;;;;;;12.65;7.18;;;9.10;87.90;;;;;;5146561;27;20027;-47
2022/04/07 01:45:05;;;;;;;7.10;5.97;;;9.20;87.70;;;;;;5142961;27;20099;-48
2022/04/07 01:47:33;;;;;;;10.00;5.25;;;9.20;87.70;;;;;;5120940;27;20485;-47
2022/04/07 01:50:03;;;;;;;7.10;4.70;;;9.10;87.70;;;;;;5155656;27;20041;-46
2022/04/07 01:52:29;;;;;;;7.18;4.90;;;9.10;87.60;;;;;;5136389;27;20484;-47
2022/04/07 01:54:57;;;;;;;7.85;4.38;;;9.10;87.50;;;;;;5142412;27;20039;-46
2022/04/07 01:57:23;;;;;;;6.85;4.25;;;9.00;87.50;;;;;;5150978;27;20030;-45
2022/04/07 01:59:51;;;;;;;6.50;4.93;;;9.10;87.20;;;;;;5155737;27;20042;-46
2022/04/07 02:02:16;;;;;;;5.50;3.17;;;9.10;86.90;;;;;;5140641;27;20027;-46
2022/04/07 02:04:58;;;;;;;8.82;3.28;;;9.10;86.90;;;;;;5152918;27;20030;-45
2022/04/07 02:07:29;;;;;;;6.28;3.40;;;9.10;86.80;;;;;;5136658;27;20467;-46
2022/04/07 02:09:55;;;;;;;6.78;4.10;;;9.10;86.80;;;;;;5140566;27;20061;-45
2022/04/07 02:12:21;;;;;;;4.82;3.25;;;9.10;86.70;;;;;;5139639;27;20122;-45
2022/04/07 02:14:50;;;;;;;4.40;2.72;;;9.10;86.70;;;;;;5136867;27;20417;-45
2022/04/07 02:17:22;;;;;;;8.98;3.15;;;9.00;86.90;;;;;;5151379;27;20015;-45
2022/04/07 02:19:52;;;;;;;5.75;3.00;;;9.00;87.00;;;;;;5155603;27;20022;-45
2022/04/07 02:22:19;;;;;;;8.07;4.43;;;9.00;87.00;;;;;;5154003;27;20046;-45
2022/04/07 02:24:47;;;;;;;5.13;2.92;;;9.00;87.10;;;;;;5155701;27;20027;-47
2022/04/07 02:27:13;;;;;;;7.53;3.38;;;8.90;87.20;;;;;;5154320;27;20122;-45
2022/04/07 02:29:40;;;;;;;6.88;3.05;;;8.90;87.30;;;;;;5154975;27;20026;-44
2022/04/07 02:32:06;;;;;;;4.72;3.17;;;8.90;87.30;;;;;;5155111;27;20047;-45
2022/04/07 02:34:32;;;;;;;5.57;3.13;;;8.90;87.30;;;;;;5136663;27;20089;-45
2022/04/07 02:36:57;;;;;;;9.10;2.67;;;8.90;87.30;;;;;;5154328;27;20347;-44
2022/04/07 02:39:25;;;;;;;5.63;2.80;;;8.90;87.30;;;;;;5152882;27;20046;-45
2022/04/07 02:41:55;;;;;;;7.38;2.97;;;8.90;87.10;;;;;;5154816;27;20391;-47
2022/04/07 02:44:23;;;;;;;6.72;3.00;;;9.00;87.20;;;;;;5154790;27;20435;-51
2022/04/07 02:46:51;;;;;;;5.25;2.63;;;8.90;87.40;;;;;;5150683;27;20023;-51
2022/04/07 02:49:17;;;;;;;5.10;2.80;;;8.90;87.60;;;;;;5155337;27;20045;-51
2022/04/07 02:51:44;;;;;;;5.25;2.70;;;8.90;87.80;;;;;;5134375;27;20378;-51
2022/04/07 02:54:13;;;;;;;3.63;2.33;;;8.90;88.00;;;;;;5152997;27;20438;-58
2022/04/07 02:56:39;;;;;;;4.93;2.60;;;8.80;88.10;;;;;;5135913;27;20030;-60
2022/04/07 02:59:04;;;;;;;5.85;2.25;;;8.80;88.20;;;;;;5134790;27;20030;-60
2022/04/07 03:01:30;;;;;;;7.90;2.67;;;8.80;88.40;;;;;;5154491;27;20031;-61
2022/04/07 03:03:56;;;;;;;5.60;2.28;;;8.70;88.60;;;;;;5152532;27;20023;-63
2022/04/07 03:06:24;;;;;;;4.38;2.30;;;8.80;88.70;;;;;;5153852;27;20468;-61
2022/04/07 03:08:53;;;;;;;6.30;2.85;;;8.70;88.70;;;;;;5154616;27;20345;-58
2022/04/07 03:11:19;;;;;;;6.45;2.60;;;8.70;88.90;;;;;;5154026;27;20018;-56
2022/04/07 03:13:45;;;;;;;5.72;2.55;;;8.70;88.90;;;;;;5167064;27;20034;-55
2022/04/07 03:16:11;;;;;;;5.53;2.40;;;8.60;88.80;;;;;;5174672;27;20026;-56
2022/04/07 03:18:36;;;;;;;7.28;1.90;;;8.60;88.60;;;;;;5174192;27;20101;-53
2022/04/07 03:21:02;;;;;;;7.07;1.98;;;8.50;88.50;;;;;;5155655;27;20029;-54
2022/04/07 03:23:28;;;;;;;7.22;2.10;;;8.40;88.10;;;;;;5157398;27;20034;-49
2022/04/07 03:25:56;;;;;;;5.07;1.67;;;8.40;88.00;;;;;;5176445;27;20051;-51
2022/04/07 03:28:22;;;;;;;3.83;1.70;;;8.40;88.10;;;;;;5175829;27;20058;-48
2022/04/07 03:30:47;;;;;;;3.97;1.90;;;8.40;88.10;;;;;;5156428;27;20054;-49
2022/04/07 03:33:13;;;;;;;4.43;1.70;;;8.30;88.20;;;;;;5174920;27;20026;-48
2022/04/07 03:35:39;;;;;;;5.18;2.88;;;8.40;88.20;;;;;;5174900;27;20030;-48
2022/04/07 03:38:09;;;;;;;6.65;4.13;;;8.40;88.40;;;;;;5157663;27;20041;-48
2022/04/07 03:40:37;;;;;;;6.68;3.78;;;8.40;88.50;;;;;;5156500;27;20022;-51
2022/04/07 03:43:03;;;;;;;8.32;3.90;;;8.40;88.70;;;;;;5174563;27;20037;-48
2022/04/07 03:45:32;;;;;;;6.95;3.10;;;8.40;88.60;;;;;;5174782;27;20054;-47
2022/04/07 03:47:57;;;;;;;6.55;3.25;;;8.40;88.60;;;;;;5154571;27;20594;-50
2022/04/07 03:50:23;;;;;;;8.98;3.53;;;8.50;88.50;;;;;;5175390;27;20027;-47
2022/04/07 03:52:49;;;;;;;6.78;3.65;;;8.50;88.40;;;;;;5172225;27;20029;-48
2022/04/07 03:55:16;;;;;;;13.00;6.28;;;8.50;88.40;;;;;;5156422;27;20030;-49
2022/04/07 03:57:42;;;;;;;7.00;3.17;;;8.60;88.30;;;;;;5174197;27;20345;-55
2022/04/07 04:00:08;;;;;;;6.63;3.10;;;8.60;88.20;;;;;;5174629;27;20037;-51
2022/04/07 04:02:36;;;;;;;9.35;3.67;;;8.60;88.30;;;;;;5157911;27;20462;-52
2022/04/07 04:05:01;;;;;;;8.80;3.22;;;8.60;88.20;;;;;;5161067;27;20052;-53
2022/04/07 04:07:28;;;;;;;10.18;3.30;;;8.60;88.10;;;;;;5178744;27;20034;-49
2022/04/07 04:09:53;;;;;;;11.35;3.25;;;8.60;88.00;;;;;;5178927;27;20026;-51
2022/04/07 04:12:19;;;;;;;10.02;2.90;;;8.50;87.90;;;;;;5175216;27;20026;-48
2022/04/07 04:14:44;;;;;;;10.10;4.00;;;8.60;87.80;;;;;;5143684;27;20038;-48
2022/04/07 04:17:10;;;;;;;10.90;2.97;;;8.60;87.90;;;;;;5178241;27;20059;-48
2022/04/07 04:19:35;;;;;;;8.63;4.28;;;8.50;87.90;;;;;;5160831;27;20022;-48
2022/04/07 04:22:01;;;;;;;6.63;3.63;;;8.60;87.90;;;;;;5160199;27;20030;-48
2022/04/07 04:24:29;;;;;;;10.82;4.10;;;8.70;87.90;;;;;;5177946;27;20030;-47
2022/04/07 04:26:54;;;;;;;10.38;4.40;;;8.70;87.80;;;;;;5169831;27;20064;-48
2022/04/07 04:29:20;;;;;;;8.13;3.47;;;8.70;88.00;;;;;;5140180;27;20030;-48
2022/04/07 04:31:45;;;;;;;8.80;4.55;;;8.70;87.90;;;;;;5159826;27;20058;-48
2022/04/07 04:34:11;;;;;;;11.65;5.32;;;8.70;87.90;;;;;;5177932;27;20086;-48
2022/04/07 04:36:37;;;;;;;13.10;5.03;;;8.70;88.00;;;;;;5165236;27;20456;-46
2022/04/07 04:39:03;;;;;;;9.57;4.47;;;8.80;87.90;;;;;;5175057;27;20022;-49
2022/04/07 04:41:29;;;;;;;12.60;4.35;;;8.80;87.80;;;;;;5174156;27;20038;-46
2022/04/07 04:43:54;;;;;;;13.85;5.00;;;8.80;87.90;;;;;;5158779;27;20022;-46
2022/04/07 04:46:20;;;;;;;10.88;5.38;;;8.80;87.80;;;;;;5175115;27;20032;-48
2022/04/07 04:48:46;;;;;;;9.38;4.75;;;8.90;87.50;;;;;;5157673;27;20026;-47
2022/04/07 04:51:12;;;;;;;10.85;4.90;;;8.90;87.60;;;;;;5158313;27;20029;-46
2022/04/07 04:53:37;;;;;;;12.48;6.18;;;8.90;87.60;;;;;;5159833;27;20022;-47
2022/04/07 04:56:07;;;;;;;9.13;5.03;;;8.90;87.60;;;;;;5176696;27;20026;-46
2022/04/07 04:58:32;;;;;;;10.07;4.75;;;8.90;87.50;;;;;;5175841;27;20107;-46
2022/04/07 05:00:58;;;;;;;7.18;4.57;;;8.90;87.70;;;;;;5158241;27;20060;-48
2022/04/07 05:03:26;;;;;;;9.05;4.43;;;8.80;87.70;;;;;;5176255;27;20037;-47
2022/04/07 05:05:51;;;;;;;14.02;4.53;;;8.80;87.50;;;;;;5176829;27;20018;-47
2022/04/07 05:08:18;;;;;;;8.07;3.78;;;8.80;87.40;;;;;;5159344;27;20013;-45
2022/04/07 05:10:44;;;;;;;10.98;3.45;;;8.80;87.20;;;;;;5177208;27;20420;-45
2022/04/07 05:13:10;;;;;;;12.40;3.85;;;8.90;87.00;;;;;;5158044;27;20045;-45
2022/04/07 05:15:37;;;;;;;9.48;3.15;;;8.90;86.70;;;;;;5162270;27;20040;-45
2022/04/07 05:18:03;;;;;;;8.57;2.72;;;8.90;86.70;;;;;;5163354;27;20459;-46
2022/04/07 05:20:29;;;;;;;8.45;2.60;;;8.90;86.50;;;;;;5161540;27;20018;-45
2022/04/07 05:22:54;;;;;;;10.15;2.55;;;8.90;86.30;;;;;;5180418;27;20022;-46
2022/04/07 05:25:20;;;;;;;7.22;2.35;;;8.90;86.20;;;;;;5175767;27;20441;-45
2022/04/07 05:27:46;;;;;;;11.00;2.35;;;8.90;86.30;;;;;;5153603;27;20026;-44
2022/04/07 05:30:13;;;;;;;7.60;2.20;;;8.90;86.30;;;;;;5172472;27;20029;-45
2022/04/07 05:32:39;;;;;;;7.15;2.97;;;9.00;86.20;;;;;;5158079;27;20026;-44
2022/04/07 05:35:05;;;;;;;11.52;3.35;;;9.00;86.10;;;;;;5174644;27;20069;-45
2022/04/07 05:37:31;;;;;;;11.30;2.45;;;9.10;86.00;;;;;;5172676;27;20071;-47
2022/04/07 05:39:57;;;;;;;6.20;2.53;;;9.20;85.80;;;;;;5172555;27;20030;-44
2022/04/07 05:42:22;;;;;;;9.98;3.15;;;9.20;85.80;;;;;;5174108;27;20319;-44
2022/04/07 05:44:48;;;;;;;9.48;2.05;;;9.10;85.90;;;;;;5176129;27;20022;-43
2022/04/07 05:47:13;;;;;;;12.63;2.50;;;9.10;85.90;;;;;;5175707;27;20042;-43
2022/04/07 05:49:39;;;;;;;5.93;2.90;;;9.10;86.00;;;;;;5158068;27;20018;-43
2022/04/07 05:52:05;;;;;;;12.02;4.13;;;9.00;86.10;;;;;;5165217;27;20052;-45
2022/04/07 05:54:31;;;;;;;7.18;2.53;;;9.00;86.20;;;;;;5143406;27;20079;-45
2022/04/07 05:56:59;;;;;;;7.65;2.75;;;9.00;86.40;;;;;;5163523;27;20052;-61
2022/04/07 05:59:24;;;;;;;12.65;2.90;;;9.00;86.70;;;;;;5184692;27;20030;-60
2022/04/07 06:01:50;;;;;;;10.85;3.25;;;8.90;87.00;;;;;;5145013;27;20093;-58
2022/04/07 06:04:16;;;;;;;11.13;2.40;;;8.90;87.10;;;;;;5167091;27;20052;-59
2022/04/07 06:06:45;;;;;;;5.88;1.90;;;8.80;87.20;;;;;;5155945;27;20028;-54
2022/04/07 06:09:13;;;;;;;11.90;3.42;;;8.70;87.20;;;;;;5154227;27;20022;-55
2022/04/07 06:11:38;;;;;;;8.80;2.58;;;8.70;87.40;;;;;;5150773;27;20044;-51
2022/04/07 06:14:04;;;;;;;9.20;1.98;;;8.70;87.30;;;;;;5151047;27;20042;-55
2022/04/07 06:16:30;;;;;;;6.53;2.13;;;8.70;87.00;;;;;;5155460;27;20035;-52
2022/04/07 06:18:55;;;;;;;7.32;2.22;;;8.60;86.90;;;;;;5150856;27;20035;-52
2022/04/07 06:21:24;;;;;;;5.15;1.55;;;8.60;86.50;;;;;;5147354;27;20026;-54
2022/04/07 06:23:54;;;;;;;9.80;2.42;;;8.60;86.20;;;;;;5132970;27;20269;-60
2022/04/07 06:26:22;;;;;;;7.97;2.75;;;8.60;86.40;;;;;;5125782;27;20034;-64
2022/04/07 06:28:48;;;;;;;5.55;1.83;;;8.50;86.60;;;;;;5159254;27;20111;-63
2022/04/07 06:31:14;;;;;;;6.40;1.60;;;8.50;87.00;;;;;;5146757;27;20031;-63
2022/04/07 06:33:39;;;;;;;11.57;3.20;;;8.40;87.20;;;;;;5129186;27;20066;-63
2022/04/07 06:36:06;;;;;;;6.53;1.70;;;8.30;87.50;;;;;;5161946;27;20362;-65
2022/04/07 06:38:31;;;;;;;4.88;1.67;;;8.20;87.40;;;;;;5172518;27;20470;-64
2022/04/07 06:41:01;;;;;;;6.68;2.85;;;8.10;87.60;;;;;;5155522;27;20044;-64
2022/04/07 06:43:29;;;;;;;4.95;1.70;;;8.10;87.70;;;;;;5159074;27;20023;-64
2022/04/07 06:45:54;;;;;;;4.65;1.50;;;8.00;88.00;;;;;;5157083;27;20030;-65
2022/04/07 06:48:20;;;;;;;7.50;1.88;;;7.90;88.20;;;;;;5163550;27;20025;-65
2022/04/07 06:50:45;;;;;;;6.47;3.10;;;7.80;88.30;;;;;;5150896;27;20082;-65
2022/04/07 06:53:14;;;;;;;8.98;2.28;;;7.80;88.60;;;;;;5156526;27;20043;-66
2022/04/07 06:55:43;;;;;;;7.20;1.47;;;7.70;88.60;;;;;;5150624;27;20054;-66
2022/04/07 06:58:10;;;;;;;5.20;1.67;;;7.60;88.70;;;;;;5152927;27;20310;-65
2022/04/07 07:00:42;;;;;;;1.58;0.73;;;7.40;88.60;;;;;;5167622;27;20105;-65
2022/04/07 07:03:08;;;;;;;2.80;0.55;;;7.30;88.10;;;;;;5149240;27;20023;-64
2022/04/07 07:05:37;;;;;;;1.73;0.40;;;7.10;87.80;;;;;;5167008;27;20433;-65
2022/04/07 07:08:27;;;;;;;1.13;0.50;;;7.00;88.00;;;;;;5153662;27;20034;-64
2022/04/07 07:10:53;;;;;;;3.80;1.20;;;6.90;88.20;;;;;;5152918;27;20088;-64
2022/04/07 07:13:22;;;;;;;5.72;0.80;;;6.90;88.40;;;;;;5162411;27;20046;-64
2022/04/07 07:15:48;;;;;;;3.70;0.90;;;6.90;88.60;;;;;;5127599;27;20102;-64
2022/04/07 07:18:13;;;;;;;2.85;0.90;;;6.80;88.50;;;;;;5150596;27;20054;-66
2022/04/07 07:20:39;;;;;;;6.00;0.82;;;6.70;88.60;;;;;;5150119;27;20019;-65
2022/04/07 07:23:07;;;;;;;2.50;0.70;;;6.70;88.80;;;;;;5147042;27;20513;-64
2022/04/07 07:25:35;;;;;;;5.80;0.80;;;6.70;88.90;;;;;;5131518;27;20109;-64
2022/04/07 07:28:02;;;;;;;2.67;0.95;;;6.60;89.00;;;;;;5152056;27;20019;-65
2022/04/07 07:30:28;;;;;;;2.42;0.90;;;6.60;89.20;;;;;;5149638;27;20041;-64
2022/04/07 07:32:54;;;;;;;3.92;0.88;;;6.60;89.20;;;;;;5149304;27;20039;-65
2022/04/07 07:35:21;;;;;;;2.60;0.65;;;6.60;89.20;;;;;;5129916;27;20030;-65
2022/04/07 07:37:57;;;;;;;2.28;0.80;;;6.60;89.30;;;;;;5151850;27;20035;-65
2022/04/07 07:40:24;;;;;;;3.97;1.00;;;6.70;89.20;;;;;;5135038;27;20740;-65
2022/04/07 07:42:54;;;;;;;3.65;1.45;;;6.70;89.30;;;;;;5151906;27;20327;-63
2022/04/07 07:45:20;;;;;;;5.07;1.30;;;6.70;89.30;;;;;;5153698;27;20048;-62
2022/04/07 07:47:45;;;;;;;4.32;1.10;;;6.60;89.20;;;;;;5134058;27;20513;-58
2022/04/07 07:50:11;;;;;;;3.95;0.88;;;6.60;89.20;;;;;;5152356;27;20544;-57
2022/04/07 07:52:37;;;;;;;2.92;0.70;;;6.60;89.10;;;;;;5153347;27;20027;-58
2022/04/07 07:55:03;;;;;;;5.65;1.38;;;6.60;89.30;;;;;;5155601;27;20030;-56
2022/04/07 07:57:30;;;;;;;3.17;1.95;;;6.60;89.30;;;;;;5154488;27;20057;-51
2022/04/07 07:59:57;;;;;;;1.67;0.68;;;6.70;89.20;;;;;;5145842;27;20082;-53
2022/04/07 08:02:23;;;;;;;4.03;2.00;;;6.70;89.20;;;;;;5146891;27;20715;-52
2022/04/07 08:04:50;;;;;;;4.75;0.90;;;6.70;89.10;;;;;;5151546;27;20038;-51
2022/04/07 08:07:16;;;;;;;2.65;0.80;;;6.80;88.90;;;;;;5154221;27;20045;-57
2022/04/07 08:09:42;;;;;;;3.38;0.90;;;6.70;88.80;;;;;;5152095;27;21928;-57
2022/04/07 08:12:07;;;;;;;5.13;1.25;;;6.70;88.60;;;;;;5135421;27;20134;-56
2022/04/07 08:14:38;;;;;;;4.47;1.58;;;6.70;88.60;;;;;;5173308;27;20126;-57
2022/04/07 08:17:06;;;;;;;3.30;0.65;;;6.70;88.40;;;;;;5170582;27;20153;-54
2022/04/07 08:19:35;;;;;;;1.65;0.63;;;6.60;88.40;;;;;;5168616;27;20090;-53
2022/04/07 08:22:02;;;;;;;2.03;0.68;;;6.50;88.30;;;;;;5148749;27;20022;-54
2022/04/07 08:24:27;;;;;;;5.10;1.10;;;6.50;88.40;;;;;;5170501;27;20531;-53
2022/04/07 08:26:53;;;;;;;4.80;0.90;;;6.50;88.60;;;;;;5170475;27;20110;-51
2022/04/07 08:29:19;;;;;;;2.75;0.70;;;6.50;88.60;;;;;;5174224;27;20057;-50
2022/04/07 08:31:44;;;;;;;4.22;0.80;;;6.60;88.50;;;;;;5170140;27;20030;-51
2022/04/07 08:34:10;;;;;;;2.05;0.82;;;6.60;88.50;;;;;;5171047;27;20552;-49
2022/04/07 08:36:35;;;;;;;4.38;1.50;;;6.60;88.30;;;;;;5174610;27;20440;-51
2022/04/07 08:39:02;;;;;;;2.85;0.90;;;6.60;88.20;;;;;;5172639;27;20026;-50
2022/04/07 08:41:31;;;;;;;1.25;0.55;;;6.70;88.10;;;;;;5156025;27;20740;-48
2022/04/07 08:43:58;;;;;;;3.30;0.73;;;6.70;88.20;;;;;;5173323;27;20030;-51
2022/04/07 08:46:26;;;;;;;1.17;0.60;;;6.90;87.80;;;;;;5170903;27;20052;-49
2022/04/07 08:48:58;;;;;;;3.85;0.70;;;7.00;88.00;;;;;;5172467;27;20595;-48
2022/04/07 08:51:27;;;;;;;5.55;1.80;;;7.20;87.40;;;;;;5154279;27;20034;-48
2022/04/07 08:53:53;;;;;;;3.83;0.75;;;7.30;86.90;;;;;;5154548;27;20480;-48
2022/04/07 08:56:19;;;;;;;4.38;1.13;;;7.30;85.90;;;;;;5170192;27;20038;-49
2022/04/07 08:58:45;;;;;;;2.42;0.50;;;7.20;85.70;;;;;;5154248;27;20018;-47
2022/04/07 09:01:10;;;;;;;2.40;0.85;;;7.20;85.90;;;;;;5172550;27;20087;-46
2022/04/07 09:03:36;;;;;;;2.50;0.65;;;7.20;85.60;;;;;;5172841;27;20086;-48
2022/04/07 09:06:03;;;;;;;2.88;0.80;;;7.10;85.40;;;;;;5154936;27;20033;-47
2022/04/07 09:08:32;;;;;;;3.20;0.90;;;7.10;85.70;;;;;;5169808;27;20033;-47
2022/04/07 09:10:59;;;;;;;2.90;0.80;;;7.10;85.50;;;;;;5172568;27;20022;-46
2022/04/07 09:13:39;;;;;;;2.40;0.55;;;7.20;85.70;;;;;;5172642;27;20038;-45
2022/04/07 09:16:12;;;;;;;2.13;0.80;;;7.10;85.60;;;;;;5172214;27;20042;-48
2022/04/07 09:18:41;;;;;;;3.13;0.93;;;7.30;85.70;;;;;;5171625;27;20552;-46
2022/04/07 09:21:17;;;;;;;3.00;0.50;;;7.40;85.40;;;;;;5154203;27;20026;-45
2022/04/07 09:23:42;;;;;;;2.75;0.90;;;7.60;85.30;;;;;;5172891;27;20078;-46
2022/04/07 09:26:18;;;;;;;3.10;0.65;;;7.80;84.40;;;;;;5152721;27;20038;-46
2022/04/07 09:28:46;;;;;;;1.50;0.65;;;8.00;84.30;;;;;;5173861;27;20499;-46
2022/04/07 09:31:16;;;;;;;2.78;0.80;;;8.20;83.00;;;;;;5172720;27;20026;-44
2022/04/07 09:33:45;;;;;;;1.92;0.80;;;8.40;82.90;;;;;;5154347;27;20789;-44
2022/04/07 09:36:19;;;;;;;2.72;0.60;;;8.60;82.20;;;;;;5171576;27;20089;-42
2022/04/07 09:38:50;;;;;;;3.47;0.75;;;8.90;83.30;;;;;;5172728;27;20018;-43
2022/04/07 09:41:21;;;;;;;2.70;0.77;;;9.50;82.70;;;;;;5165616;27;20026;-46
2022/04/07 09:43:58;;;;;;;1.90;0.68;;;10.10;81.10;;;;;;5168588;27;20014;-41
2022/04/07 09:46:25;;;;;;;3.08;0.70;;;10.40;79.50;;;;;;5169940;27;20883;-44
2022/04/07 09:49:05;;;;;;;3.33;0.60;;;10.40;78.70;;;;;;5171277;27;20022;-41
2022/04/07 09:51:47;;;;;;;1.65;0.82;;;10.60;77.50;;;;;;5171043;27;20018;-44
2022/04/07 09:54:15;;;;;;;2.53;0.77;;;10.90;76.90;;;;;;5152327;27;20022;-43
2022/04/07 09:56:42;;;;;;;5.63;1.17;;;10.90;74.50;;;;;;5168569;27;20757;-45
2022/04/07 09:59:09;;;;;;;5.65;1.17;;;11.00;75.40;;;;;;5170532;27;20155;-41
2022/04/07 10:01:38;;;;;;;2.55;0.68;;;11.10;75.40;;;;;;5151156;27;20109;-47
2022/04/07 10:04:05;;;;;;;2.50;1.00;;;11.00;75.60;;;;;;5172886;27;20037;-47
2022/04/07 10:06:35;;;;;;;4.03;1.15;;;11.40;75.80;;;;;;5172317;27;20050;-44
2022/04/07 10:09:04;;;;;;;3.08;0.93;;;11.20;73.40;;;;;;5167355;27;20018;-44
2022/04/07 10:11:31;;;;;;;5.03;0.80;;;11.50;75.60;;;;;;5153108;27;20083;-44
2022/04/07 10:14:00;;;;;;;4.45;1.08;;;11.80;76.10;;;;;;5173476;27;20125;-40
2022/04/07 10:16:29;;;;;;;2.85;1.10;;;12.10;73.40;;;;;;5169362;27;20037;-43
2022/04/07 10:19:05;;;;;;;3.60;0.83;;;11.90;73.10;;;;;;5148985;27;20500;-41
2022/04/07 10:21:41;;;;;;;5.90;1.50;;;12.30;72.60;;;;;;5171981;27;20032;-40
2022/04/07 10:24:21;;;;;;;3.60;1.05;;;12.40;72.70;;;;;;5167829;27;20452;-41
2022/04/07 10:26:48;;;;;;;5.03;1.10;;;12.40;73.00;;;;;;5151408;27;20029;-40
2022/04/07 10:29:23;;;;;;;3.17;1.20;;;12.80;72.70;;;;;;5169985;27;20072;-42
2022/04/07 10:32:10;;;;;;;4.78;1.40;;;13.10;71.80;;;;;;5168875;27;20457;-43
2022/04/07 10:34:42;;;;;;;3.92;1.00;;;13.00;67.30;;;;;;5168351;27;20355;-40
2022/04/07 10:37:11;;;;;;;2.63;0.95;;;13.00;69.20;;;;;;5167266;27;20071;-41
2022/04/07 10:39:41;;;;;;;5.03;1.00;;;12.90;70.40;;;;;;5148813;27;20022;-41
2022/04/07 10:42:09;;;;;;;3.85;1.50;;;13.20;69.30;;;;;;5167130;27;20029;-41
2022/04/07 10:44:34;;;;;;;3.88;1.77;;;13.30;67.70;;;;;;5152206;27;20067;-42
2022/04/07 10:47:05;;;;;;;6.45;1.67;;;13.20;66.60;;;;;;5170839;27;20022;-42
2022/04/07 10:49:32;;;;;;;5.03;1.25;;;12.70;68.00;;;;;;5149815;27;20026;-42
2022/04/07 10:51:59;;;;;;;3.83;0.95;;;12.50;68.60;;;;;;5165967;27;20118;-40
2022/04/07 10:54:28;;;;;;;6.07;1.70;;;12.40;69.70;;;;;;5173122;27;20492;-39
2022/04/07 10:56:56;;;;;;;7.55;2.65;;;12.20;70.00;;;;;;5167664;27;20026;-40
2022/04/07 10:59:31;;;;;;;4.88;1.50;;;12.40;70.50;;;;;;5151262;27;20034;-45
2022/04/07 11:01:59;;;;;;;7.63;1.30;;;12.10;69.70;;;;;;5168044;27;20022;-41
2022/04/07 11:04:24;;;;;;;5.15;1.23;;;11.60;70.10;;;;;;5154653;27;20473;-42
2022/04/07 11:07:08;;;;;;;4.53;1.20;;;11.70;72.10;;;;;;5150678;27;20022;-44
2022/04/07 11:09:58;;;;;;;8.02;1.55;;;11.80;70.50;;;;;;5169756;27;20061;-44
2022/04/07 11:12:25;;;;;;;6.75;1.65;;;11.50;71.60;;;;;;5170716;27;20090;-44
2022/04/07 11:14:56;;;;;;;3.88;1.35;;;11.30;72.80;;;;;;5151145;27;20035;-46
2022/04/07 11:17:27;;;;;;;5.72;1.40;;;11.50;71.90;;;;;;5168913;27;20377;-47
2022/04/07 11:20:16;;;;;;;7.20;1.45;;;11.60;71.40;;;;;;5168180;27;20034;-44
2022/04/07 11:22:54;;;;;;;10.48;2.92;;;11.40;70.80;;;;;;5167118;27;20131;-45
2022/04/07 11:25:33;;;;;;;4.15;0.95;;;11.00;72.30;;;;;;5171555;27;20018;-42
2022/04/07 11:28:14;;;;;;;7.67;1.40;;;10.50;76.30;;;;;;5152571;27;20120;-49
2022/04/07 11:30:46;;;;;;;5.30;1.48;;;10.20;78.30;;;;;;5170805;27;20320;-54
2022/04/07 11:33:18;;;;;;;6.85;1.95;;;9.90;81.10;;;;;;5152093;27;20033;-49
2022/04/07 11:36:04;;;;;;;6.05;1.48;;;9.80;81.00;;;;;;5169099;27;20337;-49
2022/04/07 11:38:34;;;;;;;7.60;1.58;;;10.00;82.60;;;;;;5129689;27;20121;-45
2022/04/07 11:41:10;;;;;;;8.95;2.03;;;10.50;84.20;;;;;;5168823;27;20101;-47
2022/04/07 11:43:38;;;;;;;8.15;2.03;;;10.90;82.70;;;;;;5169620;27;20156;-46
2022/04/07 11:46:07;;;;;;;7.20;1.50;;;10.80;80.40;;;;;;5169571;27;20409;-44
2022/04/07 11:48:36;;;;;;;8.20;1.67;;;10.40;79.80;;;;;;5166040;27;20026;-49
2022/04/07 11:51:12;;;;;;;6.97;1.08;;;10.20;79.80;;;;;;5168919;27;20412;-53
2022/04/07 11:53:41;;;;;;;3.15;0.85;;;9.90;79.10;;;;;;5168640;27;20113;-47
2022/04/07 11:56:21;;;;;;;3.47;0.95;;;9.80;79.50;;;;;;5148886;27;20040;-45
2022/04/07 11:58:54;;;;;;;6.25;1.02;;;10.30;81.40;;;;;;5151653;27;20019;-45
2022/04/07 12:01:20;;;;;;;5.88;1.10;;;10.40;79.70;;;;;;5166443;27;20452;-45
2022/04/07 12:03:53;;;;;;;3.42;1.05;;;10.50;79.00;;;;;;5167971;27;20114;-44
2022/04/07 12:06:30;;;;;;;2.75;0.90;;;10.40;78.90;;;;;;5148330;27;20030;-45
2022/04/07 12:08:57;;;;;;;5.18;1.38;;;10.40;78.00;;;;;;5167842;27;20043;-43
2022/04/07 12:11:24;;;;;;;5.35;1.20;;;10.60;78.50;;;;;;5170180;27;20026;-43
2022/04/07 12:13:50;;;;;;;8.07;1.92;;;10.80;79.20;;;;;;5156801;27;20126;-44
2022/04/07 12:16:16;;;;;;;6.45;1.65;;;10.80;76.70;;;;;;5146501;27;20042;-45
2022/04/07 12:18:58;;;;;;;6.15;1.80;;;10.90;75.60;;;;;;5146020;27;20357;-44
2022/04/07 12:21:25;;;;;;;12.85;2.28;;;10.80;75.60;;;;;;5140762;27;20092;-44
2022/04/07 12:24:15;;;;;;;13.55;2.60;;;10.80;74.80;;;;;;5161911;27;20345;-44
2022/04/07 12:26:46;;;;;;;6.95;2.13;;;10.80;75.70;;;;;;5163897;27;20583;-44
2022/04/07 12:29:21;;;;;;;9.90;2.17;;;10.80;75.30;;;;;;5134342;27;20057;-43
2022/04/07 12:32:16;;;;;;;4.65;2.90;;;10.70;75.90;;;;;;5151360;27;20093;-44
2022/04/07 12:34:51;;;;;;;12.07;2.42;;;10.80;76.60;;;;;;5129369;27;20042;-42
2022/04/07 12:37:28;;;;;;;9.30;1.85;;;11.00;76.90;;;;;;5146387;27;20038;-43
2022/04/07 12:39:54;;;;;;;7.35;1.77;;;11.30;74.40;;;;;;5149410;27;20092;-45
2022/04/07 12:42:21;;;;;;;10.98;3.28;;;11.40;71.40;;;;;;5152615;27;20416;-44
2022/04/07 12:44:48;;;;;;;7.43;1.27;;;11.40;69.70;;;;;;5142758;27;20026;-42
2022/04/07 12:47:25;;;;;;;10.13;1.88;;;11.30;70.10;;;;;;5142635;27;20027;-44
2022/04/07 12:50:01;;;;;;;9.10;1.60;;;11.20;69.80;;;;;;5150688;27;20023;-43
2022/04/07 12:52:36;;;;;;;9.02;2.80;;;11.10;70.40;;;;;;5149472;27;20039;-43
2022/04/07 12:55:15;;;;;;;7.13;2.08;;;11.10;71.00;;;;;;5151937;27;20409;-43
2022/04/07 12:57:42;;;;;;;7.65;2.10;;;11.10;71.40;;;;;;5135014;27;20022;-46
2022/04/07 13:00:12;;;;;;;11.02;2.35;;;10.90;70.10;;;;;;5153177;27;20457;-46